sensor_id;sensor_type;location;lat;lon;timestamp;pressure;altitude;pressure_sealevel;temperature;humidity
6387;BME280;3226;42.162;24.756;2023-04-22T00:01:16;99442.44;;;10.75;100.00
6387;BME280;3226;42.162;24.756;2023-04-22T00:03:46;99451.19;;;10.54;100.00
6387;BME280;3226;42.162;24.756;2023-04-22T00:06:14;99449.59;;;10.73;100.00
6387;BME280;3226;42.162;24.756;2023-04-22T00:08:42;99443.59;;;10.82;100.00
6387;BME280;3226;42.162;24.756;2023-04-22T00:11:11;99440.28;;;10.80;100.00
6387;BME280;3226;42.162;24.756;2023-04-22T00:13:39;99443.31;;;10.85;100.00
6387;BME280;3226;42.162;24.756;2023-04-22T00:16:07;99435.38;;;11.16;100.00
6387;BME280;3226;42.162;24.756;2023-04-22T00:18:35;99432.50;;;11.19;100.00
6387;BME280;3226;42.162;24.756;2023-04-22T00:21:03;99416.06;;;11.17;100.00
6387;BME280;3226;42.162;24.756;2023-04-22T00:23:32;99421.59;;;11.34;100.00
6387;BME280;3226;42.162;24.756;2023-04-22T00:26:00;99432.91;;;11.44;100.00
6387;BME280;3226;42.162;24.756;2023-04-22T00:28:30;99438.69;;;11.38;100.00
6387;BME280;3226;42.162;24.756;2023-04-22T00:30:58;99430.13;;;11.26;100.00
6387;BME280;3226;42.162;24.756;2023-04-22T00:33:28;99425.19;;;11.33;100.00
6387;BME280;3226;42.162;24.756;2023-04-22T00:35:56;99423.78;;;11.19;100.00
6387;BME280;3226;42.162;24.756;2023-04-22T00:38:24;99430.13;;;11.26;100.00
6387;BME280;3226;42.162;24.756;2023-04-22T00:40:52;99409.56;;;11.11;100.00
6387;BME280;3226;42.162;24.756;2023-04-22T00:43:20;99430.69;;;11.20;100.00
6387;BME280;3226;42.162;24.756;2023-04-22T00:45:49;99428.50;;;11.15;100.00
6387;BME280;3226;42.162;24.756;2023-04-22T00:48:17;99434.00;;;11.22;100.00
6387;BME280;3226;42.162;24.756;2023-04-22T00:50:46;99434.41;;;11.37;100.00
6387;BME280;3226;42.162;24.756;2023-04-22T00:53:14;99437.19;;;11.55;100.00
6387;BME280;3226;42.162;24.756;2023-04-22T00:55:42;99434.03;;;11.51;100.00
6387;BME280;3226;42.162;24.756;2023-04-22T00:58:10;99443.53;;;11.33;100.00
6387;BME280;3226;42.162;24.756;2023-04-22T01:00:38;99443.53;;;11.33;100.00
6387;BME280;3226;42.162;24.756;2023-04-22T01:03:08;99447.38;;;11.19;100.00
6387;BME280;3226;42.162;24.756;2023-04-22T01:05:36;99443.94;;;11.48;100.00
6387;BME280;3226;42.162;24.756;2023-04-22T01:08:05;99445.34;;;11.62;100.00
6387;BME280;3226;42.162;24.756;2023-04-22T01:10:33;99441.19;;;11.79;100.00
6387;BME280;3226;42.162;24.756;2023-04-22T01:13:01;99440.09;;;11.62;100.00
6387;BME280;3226;42.162;24.756;2023-04-22T01:15:29;99447.66;;;11.45;100.00
6387;BME280;3226;42.162;24.756;2023-04-22T01:17:58;99438.44;;;11.51;100.00
6387;BME280;3226;42.162;24.756;2023-04-22T01:20:28;99428.34;;;11.46;100.00
6387;BME280;3226;42.162;24.756;2023-04-22T01:22:57;99433.44;;;11.28;100.00
6387;BME280;3226;42.162;24.756;2023-04-22T01:25:28;99437.56;;;11.21;100.00
6387;BME280;3226;42.162;24.756;2023-04-22T01:27:57;99434.41;;;11.07;100.00
6387;BME280;3226;42.162;24.756;2023-04-22T01:30:25;99440.50;;;11.27;100.00
6387;BME280;3226;42.162;24.756;2023-04-22T01:32:53;99428.50;;;11.35;100.00
6387;BME280;3226;42.162;24.756;2023-04-22T01:35:21;99428.06;;;11.30;100.00
6387;BME280;3226;42.162;24.756;2023-04-22T01:37:50;99434.69;;;11.34;100.00
6387;BME280;3226;42.162;24.756;2023-04-22T01:40:18;99432.47;;;11.29;100.00
6387;BME280;3226;42.162;24.756;2023-04-22T01:42:50;99430.97;;;11.36;100.00
6387;BME280;3226;42.162;24.756;2023-04-22T01:45:17;99425.19;;;11.42;100.00
6387;BME280;3226;42.162;24.756;2023-04-22T01:47:46;99418.69;;;11.37;100.00
6387;BME280;3226;42.162;24.756;2023-04-22T01:50:14;99409.72;;;11.20;100.00
6387;BME280;3226;42.162;24.756;2023-04-22T01:52:42;99426.56;;;11.17;100.00
6387;BME280;3226;42.162;24.756;2023-04-22T01:55:10;99423.50;;;11.12;100.00
6387;BME280;3226;42.162;24.756;2023-04-22T01:57:38;99422.66;;;11.02;100.00
6387;BME280;3226;42.162;24.756;2023-04-22T02:00:08;99422.00;;;11.09;100.00
6387;BME280;3226;42.162;24.756;2023-04-22T02:02:37;99408.47;;;11.04;100.00
6387;BME280;3226;42.162;24.756;2023-04-22T02:05:06;99422.09;;;10.88;100.00
6387;BME280;3226;42.162;24.756;2023-04-22T02:07:34;99419.03;;;10.93;100.00
6387;BME280;3226;42.162;24.756;2023-04-22T02:10:03;99426.22;;;10.81;100.00
6387;BME280;3226;42.162;24.756;2023-04-22T02:12:31;99419.13;;;10.72;100.00
6387;BME280;3226;42.162;24.756;2023-04-22T02:14:59;99418.34;;;10.81;100.00
6387;BME280;3226;42.162;24.756;2023-04-22T02:17:28;99420.47;;;10.97;100.00
6387;BME280;3226;42.162;24.756;2023-04-22T02:19:57;99424.59;;;10.99;100.00
6387;BME280;3226;42.162;24.756;2023-04-22T02:22:25;99395.31;;;10.84;100.00
6387;BME280;3226;42.162;24.756;2023-04-22T02:24:55;99419.50;;;11.18;100.00
6387;BME280;3226;42.162;24.756;2023-04-22T02:27:23;99413.03;;;11.32;100.00
6387;BME280;3226;42.162;24.756;2023-04-22T02:29:51;99415.22;;;11.17;100.00
6387;BME280;3226;42.162;24.756;2023-04-22T02:32:19;99418.16;;;11.23;100.00
6387;BME280;3226;42.162;24.756;2023-04-22T02:34:48;99415.78;;;11.20;100.00
6387;BME280;3226;42.162;24.756;2023-04-22T02:37:16;99424.03;;;11.06;100.00
6387;BME280;3226;42.162;24.756;2023-04-22T02:39:44;99430.13;;;11.06;100.00
6387;BME280;3226;42.162;24.756;2023-04-22T02:42:12;99428.03;;;11.10;100.00
6387;BME280;3226;42.162;24.756;2023-04-22T02:44:40;99422.78;;;11.10;100.00
6387;BME280;3226;42.162;24.756;2023-04-22T02:47:08;99430.25;;;11.05;100.00
6387;BME280;3226;42.162;24.756;2023-04-22T02:49:36;99429.97;;;11.08;100.00
6387;BME280;3226;42.162;24.756;2023-04-22T02:52:06;99438.94;;;11.05;100.00
6387;BME280;3226;42.162;24.756;2023-04-22T02:54:34;99425.28;;;11.02;100.00
6387;BME280;3226;42.162;24.756;2023-04-22T02:57:02;99433.72;;;11.05;100.00
6387;BME280;3226;42.162;24.756;2023-04-22T02:59:30;99424.00;;;10.96;100.00
6387;BME280;3226;42.162;24.756;2023-04-22T03:01:58;99438.34;;;10.82;100.00
6387;BME280;3226;42.162;24.756;2023-04-22T03:04:26;99436.00;;;10.79;100.00
6387;BME280;3226;42.162;24.756;2023-04-22T03:06:54;99431.44;;;10.81;100.00
6387;BME280;3226;42.162;24.756;2023-04-22T03:09:24;99430.06;;;10.87;100.00
6387;BME280;3226;42.162;24.756;2023-04-22T03:11:52;99428.72;;;10.92;100.00
6387;BME280;3226;42.162;24.756;2023-04-22T03:14:20;99431.63;;;10.99;100.00
6387;BME280;3226;42.162;24.756;2023-04-22T03:16:48;99426.09;;;10.92;100.00
6387;BME280;3226;42.162;24.756;2023-04-22T03:19:16;99427.59;;;10.85;100.00
6387;BME280;3226;42.162;24.756;2023-04-22T03:21:44;99427.19;;;10.99;100.00
6387;BME280;3226;42.162;24.756;2023-04-22T03:24:12;99422.63;;;10.92;100.00
6387;BME280;3226;42.162;24.756;2023-04-22T03:26:41;99421.66;;;10.83;100.00
6387;BME280;3226;42.162;24.756;2023-04-22T03:29:09;99414.63;;;10.83;100.00
6387;BME280;3226;42.162;24.756;2023-04-22T03:31:37;99431.19;;;10.94;100.00
6387;BME280;3226;42.162;24.756;2023-04-22T03:34:05;99424.56;;;10.90;100.00
6387;BME280;3226;42.162;24.756;2023-04-22T03:36:33;99441.00;;;11.02;100.00
6387;BME280;3226;42.162;24.756;2023-04-22T03:39:01;99447.63;;;11.06;100.00
6387;BME280;3226;42.162;24.756;2023-04-22T03:41:29;99434.75;;;10.83;100.00
6387;BME280;3226;42.162;24.756;2023-04-22T03:43:58;99458.41;;;10.72;100.00
6387;BME280;3226;42.162;24.756;2023-04-22T03:46:27;99467.56;;;9.82;100.00
6387;BME280;3226;42.162;24.756;2023-04-22T03:48:55;99470.28;;;9.16;100.00
6387;BME280;3226;42.162;24.756;2023-04-22T03:51:23;99476.38;;;8.82;100.00
6387;BME280;3226;42.162;24.756;2023-04-22T03:53:51;99473.53;;;8.85;100.00
6387;BME280;3226;42.162;24.756;2023-04-22T03:56:19;99482.56;;;8.81;100.00
6387;BME280;3226;42.162;24.756;2023-04-22T03:58:47;99479.59;;;8.97;100.00
6387;BME280;3226;42.162;24.756;2023-04-22T04:01:17;99484.66;;;8.99;100.00
6387;BME280;3226;42.162;24.756;2023-04-22T04:03:44;99483.00;;;9.09;100.00
6387;BME280;3226;42.162;24.756;2023-04-22T04:06:13;99489.41;;;9.16;100.00
6387;BME280;3226;42.162;24.756;2023-04-22T04:08:41;99493.44;;;9.20;100.00
6387;BME280;3226;42.162;24.756;2023-04-22T04:11:09;99495.69;;;9.25;100.00
6387;BME280;3226;42.162;24.756;2023-04-22T04:13:37;99490.09;;;9.30;100.00
6387;BME280;3226;42.162;24.756;2023-04-22T04:16:05;99491.47;;;9.45;100.00
6387;BME280;3226;42.162;24.756;2023-04-22T04:18:35;99489.16;;;9.63;100.00
6387;BME280;3226;42.162;24.756;2023-04-22T04:21:03;99456.00;;;9.64;100.00
6387;BME280;3226;42.162;24.756;2023-04-22T04:23:31;99484.03;;;10.16;100.00
6387;BME280;3226;42.162;24.756;2023-04-22T04:25:59;99486.63;;;10.37;100.00
6387;BME280;3226;42.162;24.756;2023-04-22T04:28:28;99482.22;;;10.37;100.00
6387;BME280;3226;42.162;24.756;2023-04-22T04:30:58;99484.38;;;10.44;100.00
6387;BME280;3226;42.162;24.756;2023-04-22T04:33:26;99483.88;;;10.38;100.00
6387;BME280;3226;42.162;24.756;2023-04-22T04:35:55;99474.34;;;10.49;100.00
6387;BME280;3226;42.162;24.756;2023-04-22T04:38:23;99490.25;;;10.67;100.00
6387;BME280;3226;42.162;24.756;2023-04-22T04:40:52;99491.78;;;10.69;100.00
6387;BME280;3226;42.162;24.756;2023-04-22T04:43:20;99474.13;;;10.62;100.00
6387;BME280;3226;42.162;24.756;2023-04-22T04:45:51;99394.81;;;10.19;100.00
6387;BME280;3226;42.162;24.756;2023-04-22T04:48:19;99494.38;;;11.01;100.00
6387;BME280;3226;42.162;24.756;2023-04-22T04:50:50;99496.09;;;11.21;100.00
6387;BME280;3226;42.162;24.756;2023-04-22T04:53:21;99493.00;;;11.06;100.00
6387;BME280;3226;42.162;24.756;2023-04-22T04:55:49;99496.47;;;10.76;100.00
6387;BME280;3226;42.162;24.756;2023-04-22T04:58:17;99492.81;;;10.57;100.00
6387;BME280;3226;42.162;24.756;2023-04-22T05:00:45;99495.66;;;10.44;100.00
6387;BME280;3226;42.162;24.756;2023-04-22T05:03:13;99501.81;;;10.64;100.00
6387;BME280;3226;42.162;24.756;2023-04-22T05:05:42;99505.00;;;10.68;100.00
6387;BME280;3226;42.162;24.756;2023-04-22T05:08:11;99510.03;;;10.81;100.00
6387;BME280;3226;42.162;24.756;2023-04-22T05:10:42;99509.59;;;11.17;100.00
6387;BME280;3226;42.162;24.756;2023-04-22T05:13:10;99505.06;;;11.28;100.00
6387;BME280;3226;42.162;24.756;2023-04-22T05:15:38;99504.13;;;11.59;100.00
6387;BME280;3226;42.162;24.756;2023-04-22T05:18:06;99506.66;;;12.10;100.00
6387;BME280;3226;42.162;24.756;2023-04-22T05:20:34;99507.31;;;12.69;95.94
6387;BME280;3226;42.162;24.756;2023-04-22T05:23:02;99505.66;;;13.24;91.59
6387;BME280;3226;42.162;24.756;2023-04-22T05:25:30;99509.19;;;13.97;86.00
6387;BME280;3226;42.162;24.756;2023-04-22T05:28:00;99516.19;;;13.70;84.90
6387;BME280;3226;42.162;24.756;2023-04-22T05:30:28;99514.59;;;13.59;86.11
6387;BME280;3226;42.162;24.756;2023-04-22T05:32:55;99523.41;;;13.86;85.76
6387;BME280;3226;42.162;24.756;2023-04-22T05:35:23;99519.75;;;14.06;84.33
6387;BME280;3226;42.162;24.756;2023-04-22T05:37:51;99517.91;;;14.42;80.64
6387;BME280;3226;42.162;24.756;2023-04-22T05:40:19;99518.94;;;14.84;78.33
6387;BME280;3226;42.162;24.756;2023-04-22T05:42:47;99508.06;;;15.30;76.99
6387;BME280;3226;42.162;24.756;2023-04-22T05:45:17;99520.56;;;15.12;75.27
6387;BME280;3226;42.162;24.756;2023-04-22T05:47:45;99512.69;;;15.37;74.99
6387;BME280;3226;42.162;24.756;2023-04-22T05:50:13;99512.34;;;15.91;72.56
6387;BME280;3226;42.162;24.756;2023-04-22T05:52:41;99518.06;;;16.36;69.53
6387;BME280;3226;42.162;24.756;2023-04-22T05:55:09;99518.38;;;16.41;69.26
6387;BME280;3226;42.162;24.756;2023-04-22T05:57:37;99520.66;;;15.53;72.32
6387;BME280;3226;42.162;24.756;2023-04-22T06:00:06;99514.28;;;16.06;72.63
6387;BME280;3226;42.162;24.756;2023-04-22T06:02:36;99516.66;;;16.65;70.28
6387;BME280;3226;42.162;24.756;2023-04-22T06:05:05;99513.78;;;17.31;66.54
6387;BME280;3226;42.162;24.756;2023-04-22T06:07:33;99517.16;;;17.72;64.81
6387;BME280;3226;42.162;24.756;2023-04-22T06:10:01;99511.78;;;17.33;66.51
6387;BME280;3226;42.162;24.756;2023-04-22T06:12:32;99519.06;;;16.91;67.41
6387;BME280;3226;42.162;24.756;2023-04-22T06:15:00;99516.28;;;16.85;65.90
6387;BME280;3226;42.162;24.756;2023-04-22T06:17:27;99510.81;;;16.86;65.42
6387;BME280;3226;42.162;24.756;2023-04-22T06:19:57;99520.53;;;16.21;67.49
6387;BME280;3226;42.162;24.756;2023-04-22T06:22:25;99514.13;;;15.90;69.06
6387;BME280;3226;42.162;24.756;2023-04-22T06:24:53;99513.28;;;15.65;72.53
6387;BME280;3226;42.162;24.756;2023-04-22T06:27:21;99510.91;;;15.54;73.33
6387;BME280;3226;42.162;24.756;2023-04-22T06:29:49;99504.00;;;15.44;73.30
6387;BME280;3226;42.162;24.756;2023-04-22T06:32:16;99509.78;;;15.56;70.88
6387;BME280;3226;42.162;24.756;2023-04-22T06:34:44;99511.13;;;15.85;70.42
6387;BME280;3226;42.162;24.756;2023-04-22T06:37:14;99511.09;;;15.69;70.97
6387;BME280;3226;42.162;24.756;2023-04-22T06:39:42;99511.13;;;15.77;72.47
6387;BME280;3226;42.162;24.756;2023-04-22T06:42:09;99508.81;;;15.82;72.74
6387;BME280;3226;42.162;24.756;2023-04-22T06:44:37;99512.47;;;15.81;72.39
6387;BME280;3226;42.162;24.756;2023-04-22T06:47:05;99511.50;;;16.15;72.40
6387;BME280;3226;42.162;24.756;2023-04-22T06:49:33;99508.47;;;16.35;72.78
6387;BME280;3226;42.162;24.756;2023-04-22T06:52:04;99507.81;;;16.50;70.72
6387;BME280;3226;42.162;24.756;2023-04-22T06:54:33;99506.72;;;16.75;69.44
6387;BME280;3226;42.162;24.756;2023-04-22T06:57:01;99509.00;;;16.87;67.76
6387;BME280;3226;42.162;24.756;2023-04-22T06:59:29;99512.75;;;16.92;70.91
6387;BME280;3226;42.162;24.756;2023-04-22T07:01:57;99513.00;;;16.74;69.26
6387;BME280;3226;42.162;24.756;2023-04-22T07:04:25;99513.66;;;16.76;68.18
6387;BME280;3226;42.162;24.756;2023-04-22T07:06:55;99513.00;;;16.74;69.11
6387;BME280;3226;42.162;24.756;2023-04-22T07:09:23;99518.91;;;16.93;68.39
6387;BME280;3226;42.162;24.756;2023-04-22T07:11:52;99515.66;;;16.74;67.92
6387;BME280;3226;42.162;24.756;2023-04-22T07:14:20;99509.63;;;16.97;66.99
6387;BME280;3226;42.162;24.756;2023-04-22T07:16:48;99518.38;;;17.06;66.30
6387;BME280;3226;42.162;24.756;2023-04-22T07:19:16;99523.22;;;16.86;66.46
6387;BME280;3226;42.162;24.756;2023-04-22T07:21:44;99520.09;;;16.82;67.76
6387;BME280;3226;42.162;24.756;2023-04-22T07:24:12;99516.75;;;16.88;66.65
6387;BME280;3226;42.162;24.756;2023-04-22T07:26:42;99521.91;;;16.82;67.24
6387;BME280;3226;42.162;24.756;2023-04-22T07:29:11;99527.31;;;16.48;68.61
6387;BME280;3226;42.162;24.756;2023-04-22T07:31:39;99522.19;;;16.39;70.89
6387;BME280;3226;42.162;24.756;2023-04-22T07:34:07;99529.22;;;16.63;68.48
6387;BME280;3226;42.162;24.756;2023-04-22T07:36:36;99524.84;;;16.30;67.76
6387;BME280;3226;42.162;24.756;2023-04-22T07:39:04;99527.63;;;16.54;68.62
6387;BME280;3226;42.162;24.756;2023-04-22T07:41:33;99519.38;;;16.48;67.75
6387;BME280;3226;42.162;24.756;2023-04-22T07:44:01;99527.34;;;16.15;69.05
6387;BME280;3226;42.162;24.756;2023-04-22T07:46:31;99510.16;;;16.03;70.01
6387;BME280;3226;42.162;24.756;2023-04-22T07:48:58;99523.97;;;15.64;71.37
6387;BME280;3226;42.162;24.756;2023-04-22T07:51:27;99514.75;;;15.84;71.47
6387;BME280;3226;42.162;24.756;2023-04-22T07:53:55;99518.06;;;15.78;71.10
6387;BME280;3226;42.162;24.756;2023-04-22T07:56:23;99517.88;;;15.80;69.52
6387;BME280;3226;42.162;24.756;2023-04-22T07:58:51;99517.22;;;15.86;70.54
6387;BME280;3226;42.162;24.756;2023-04-22T08:01:19;99514.13;;;16.07;70.78
6387;BME280;3226;42.162;24.756;2023-04-22T08:03:48;99516.94;;;16.30;71.22
6387;BME280;3226;42.162;24.756;2023-04-22T08:06:16;99514.09;;;16.48;71.22
6387;BME280;3226;42.162;24.756;2023-04-22T08:08:45;99507.81;;;16.89;67.87
6387;BME280;3226;42.162;24.756;2023-04-22T08:11:13;99513.91;;;17.07;67.81
6387;BME280;3226;42.162;24.756;2023-04-22T08:13:41;99519.72;;;17.02;67.86
6387;BME280;3226;42.162;24.756;2023-04-22T08:16:09;99505.53;;;17.26;64.65
6387;BME280;3226;42.162;24.756;2023-04-22T08:18:37;99513.47;;;17.26;62.89
6387;BME280;3226;42.162;24.756;2023-04-22T08:21:06;99499.66;;;17.16;63.61
6387;BME280;3226;42.162;24.756;2023-04-22T08:23:34;99511.06;;;17.40;63.87
6387;BME280;3226;42.162;24.756;2023-04-22T08:26:02;99515.34;;;16.69;64.94
6387;BME280;3226;42.162;24.756;2023-04-22T08:28:30;99507.47;;;16.36;67.83
6387;BME280;3226;42.162;24.756;2023-04-22T08:30:58;99506.66;;;16.36;68.79
6387;BME280;3226;42.162;24.756;2023-04-22T08:33:26;99497.75;;;16.20;67.17
6387;BME280;3226;42.162;24.756;2023-04-22T08:35:54;99494.28;;;16.44;68.39
6387;BME280;3226;42.162;24.756;2023-04-22T08:38:24;99489.38;;;16.16;66.44
6387;BME280;3226;42.162;24.756;2023-04-22T08:40:55;99483.75;;;16.19;68.12
6387;BME280;3226;42.162;24.756;2023-04-22T08:43:24;99473.78;;;16.38;66.30
6387;BME280;3226;42.162;24.756;2023-04-22T08:45:53;99483.56;;;16.77;64.21
6387;BME280;3226;42.162;24.756;2023-04-22T08:48:21;99476.84;;;16.67;64.76
6387;BME280;3226;42.162;24.756;2023-04-22T08:50:49;99479.16;;;16.70;65.03
6387;BME280;3226;42.162;24.756;2023-04-22T08:53:17;99481.66;;;17.11;66.45
6387;BME280;3226;42.162;24.756;2023-04-22T08:55:48;99479.56;;;17.53;65.08
6387;BME280;3226;42.162;24.756;2023-04-22T08:58:16;99465.41;;;17.84;62.15
6387;BME280;3226;42.162;24.756;2023-04-22T09:00:44;99476.94;;;18.15;60.40
6387;BME280;3226;42.162;24.756;2023-04-22T09:03:13;99472.03;;;17.42;62.10
6387;BME280;3226;42.162;24.756;2023-04-22T09:05:44;99469.63;;;16.92;65.70
6387;BME280;3226;42.162;24.756;2023-04-22T09:08:12;99463.97;;;17.03;68.04
6387;BME280;3226;42.162;24.756;2023-04-22T09:10:40;99454.63;;;17.24;63.88
6387;BME280;3226;42.162;24.756;2023-04-22T09:13:10;99446.47;;;17.26;61.37
6387;BME280;3226;42.162;24.756;2023-04-22T09:15:40;99454.41;;;17.34;63.34
6387;BME280;3226;42.162;24.756;2023-04-22T09:18:08;99442.56;;;17.45;61.58
6387;BME280;3226;42.162;24.756;2023-04-22T09:20:41;99446.25;;;17.36;64.87
6387;BME280;3226;42.162;24.756;2023-04-22T09:23:11;99446.03;;;17.22;66.42
6387;BME280;3226;42.162;24.756;2023-04-22T09:25:39;99443.94;;;17.79;62.27
6387;BME280;3226;42.162;24.756;2023-04-22T09:28:15;99445.41;;;18.20;60.06
6387;BME280;3226;42.162;24.756;2023-04-22T09:30:44;99429.84;;;18.02;58.57
6387;BME280;3226;42.162;24.756;2023-04-22T09:33:13;99429.53;;;17.82;59.43
6387;BME280;3226;42.162;24.756;2023-04-22T09:35:42;99437.81;;;17.40;61.85
6387;BME280;3226;42.162;24.756;2023-04-22T09:38:11;99431.13;;;16.98;62.67
6387;BME280;3226;42.162;24.756;2023-04-22T09:40:41;99426.91;;;17.12;61.59
6387;BME280;3226;42.162;24.756;2023-04-22T09:43:11;99421.63;;;17.35;60.38
6387;BME280;3226;42.162;24.756;2023-04-22T09:45:41;99406.03;;;16.85;61.75
6387;BME280;3226;42.162;24.756;2023-04-22T09:48:11;99406.56;;;16.81;61.42
6387;BME280;3226;42.162;24.756;2023-04-22T09:50:42;99409.22;;;16.72;62.43
6387;BME280;3226;42.162;24.756;2023-04-22T09:53:13;99404.88;;;16.88;59.66
6387;BME280;3226;42.162;24.756;2023-04-22T09:55:43;99400.44;;;17.58;58.95
6387;BME280;3226;42.162;24.756;2023-04-22T09:58:14;99399.09;;;17.77;59.19
6387;BME280;3226;42.162;24.756;2023-04-22T10:00:45;99401.03;;;17.84;56.44
6387;BME280;3226;42.162;24.756;2023-04-22T10:03:14;99400.97;;;17.54;57.19
6387;BME280;3226;42.162;24.756;2023-04-22T10:05:43;99396.78;;;17.59;56.32
6387;BME280;3226;42.162;24.756;2023-04-22T10:08:13;99410.97;;;17.43;55.80
6387;BME280;3226;42.162;24.756;2023-04-22T10:10:42;99396.19;;;17.49;54.67
6387;BME280;3226;42.162;24.756;2023-04-22T10:13:11;99401.81;;;17.54;54.29
6387;BME280;3226;42.162;24.756;2023-04-22T10:15:43;99408.47;;;17.65;55.28
6387;BME280;3226;42.162;24.756;2023-04-22T10:18:19;99402.47;;;17.71;55.25
6387;BME280;3226;42.162;24.756;2023-04-22T10:20:49;99399.50;;;17.89;55.38
6387;BME280;3226;42.162;24.756;2023-04-22T10:23:20;99404.84;;;17.81;54.62
6387;BME280;3226;42.162;24.756;2023-04-22T10:25:49;99398.38;;;17.84;56.60
6387;BME280;3226;42.162;24.756;2023-04-22T10:28:20;99399.19;;;18.08;58.47
6387;BME280;3226;42.162;24.756;2023-04-22T10:30:50;99405.19;;;18.16;53.47
6387;BME280;3226;42.162;24.756;2023-04-22T10:33:37;99402.69;;;18.00;53.85
6387;BME280;3226;42.162;24.756;2023-04-22T10:36:07;99398.16;;;17.55;53.93
6387;BME280;3226;42.162;24.756;2023-04-22T10:38:36;99390.06;;;17.87;51.25
6387;BME280;3226;42.162;24.756;2023-04-22T10:41:04;99407.31;;;17.68;53.92
6387;BME280;3226;42.162;24.756;2023-04-22T10:43:43;99404.84;;;18.04;56.79
6387;BME280;3226;42.162;24.756;2023-04-22T10:49:20;99402.91;;;18.43;51.76
6387;BME280;3226;42.162;24.756;2023-04-22T10:51:49;99385.72;;;18.54;51.87
6387;BME280;3226;42.162;24.756;2023-04-22T10:54:58;99398.19;;;18.24;52.44
6387;BME280;3226;42.162;24.756;2023-04-22T10:57:40;99415.78;;;18.16;55.53
6387;BME280;3226;42.162;24.756;2023-04-22T11:00:27;99414.34;;;18.44;52.42
6387;BME280;3226;42.162;24.756;2023-04-22T11:03:15;99408.94;;;18.37;52.29
6387;BME280;3226;42.162;24.756;2023-04-22T11:05:46;99411.31;;;18.32;51.31
6387;BME280;3226;42.162;24.756;2023-04-22T11:08:18;99404.28;;;18.54;49.52
6387;BME280;3226;42.162;24.756;2023-04-22T11:10:48;99410.28;;;19.15;48.59
6387;BME280;3226;42.162;24.756;2023-04-22T11:13:18;99413.13;;;19.13;49.64
6387;BME280;3226;42.162;24.756;2023-04-22T11:15:48;99429.41;;;18.58;51.50
6387;BME280;3226;42.162;24.756;2023-04-22T11:18:18;99433.38;;;17.32;52.79
6387;BME280;3226;42.162;24.756;2023-04-22T11:20:48;99442.41;;;16.83;53.64
6387;BME280;3226;42.162;24.756;2023-04-22T11:23:19;99455.00;;;16.25;54.99
6387;BME280;3226;42.162;24.756;2023-04-22T11:25:53;99461.75;;;16.36;54.64
6387;BME280;3226;42.162;24.756;2023-04-22T11:28:21;99466.41;;;16.17;56.51
6387;BME280;3226;42.162;24.756;2023-04-22T11:30:49;99453.88;;;16.02;59.11
6387;BME280;3226;42.162;24.756;2023-04-22T11:33:18;99486.69;;;15.50;59.18
6387;BME280;3226;42.162;24.756;2023-04-22T11:35:49;99489.59;;;14.79;60.89
6387;BME280;3226;42.162;24.756;2023-04-22T11:38:17;99493.13;;;14.96;61.76
6387;BME280;3226;42.162;24.756;2023-04-22T11:40:46;99496.97;;;14.41;63.02
6387;BME280;3226;42.162;24.756;2023-04-22T11:43:14;99501.16;;;14.25;64.35
6387;BME280;3226;42.162;24.756;2023-04-22T11:45:44;99501.81;;;14.01;65.53
6387;BME280;3226;42.162;24.756;2023-04-22T11:48:13;99507.22;;;13.81;67.03
6387;BME280;3226;42.162;24.756;2023-04-22T11:50:42;99494.94;;;13.64;69.58
6387;BME280;3226;42.162;24.756;2023-04-22T11:53:16;99510.09;;;13.70;72.26
6387;BME280;3226;42.162;24.756;2023-04-22T11:55:47;99514.53;;;13.41;71.97
6387;BME280;3226;42.162;24.756;2023-04-22T11:58:18;99505.47;;;13.36;74.86
6387;BME280;3226;42.162;24.756;2023-04-22T12:00:47;99489.66;;;13.18;76.04
6387;BME280;3226;42.162;24.756;2023-04-22T12:03:17;99504.09;;;13.13;75.79
6387;BME280;3226;42.162;24.756;2023-04-22T12:05:51;99480.72;;;13.10;76.06
6387;BME280;3226;42.162;24.756;2023-04-22T12:08:23;99473.66;;;13.11;76.46
6387;BME280;3226;42.162;24.756;2023-04-22T12:10:53;99502.72;;;13.09;77.92
6387;BME280;3226;42.162;24.756;2023-04-22T12:13:22;99507.94;;;12.91;83.04
6387;BME280;3226;42.162;24.756;2023-04-22T12:15:53;99508.47;;;12.57;85.25
6387;BME280;3226;42.162;24.756;2023-04-22T12:18:27;99489.66;;;12.04;90.55
6387;BME280;3226;42.162;24.756;2023-04-22T12:20:58;99520.47;;;12.02;93.74
6387;BME280;3226;42.162;24.756;2023-04-22T12:23:28;99522.94;;;11.94;96.96
6387;BME280;3226;42.162;24.756;2023-04-22T12:25:57;99518.78;;;11.91;96.61
6387;BME280;3226;42.162;24.756;2023-04-22T12:28:25;99523.47;;;11.88;98.94
6387;BME280;3226;42.162;24.756;2023-04-22T12:30:52;99519.06;;;11.98;100.00
6387;BME280;3226;42.162;24.756;2023-04-22T12:33:21;99519.63;;;11.92;100.00
6387;BME280;3226;42.162;24.756;2023-04-22T12:35:49;99517.00;;;11.92;100.00
6387;BME280;3226;42.162;24.756;2023-04-22T12:38:18;99513.00;;;11.88;100.00
6387;BME280;3226;42.162;24.756;2023-04-22T12:40:47;99507.19;;;11.84;98.45
6387;BME280;3226;42.162;24.756;2023-04-22T12:43:16;99495.28;;;11.99;99.26
6387;BME280;3226;42.162;24.756;2023-04-22T12:45:44;99490.13;;;12.37;99.00
6387;BME280;3226;42.162;24.756;2023-04-22T12:48:13;99487.19;;;12.50;93.11
6387;BME280;3226;42.162;24.756;2023-04-22T12:50:41;99482.59;;;12.62;91.86
6387;BME280;3226;42.162;24.756;2023-04-22T12:53:09;99477.75;;;12.67;91.24
6387;BME280;3226;42.162;24.756;2023-04-22T12:55:37;99481.53;;;12.83;92.92
6387;BME280;3226;42.162;24.756;2023-04-22T12:58:06;99476.69;;;13.06;93.79
6387;BME280;3226;42.162;24.756;2023-04-22T13:00:34;99476.09;;;12.94;84.08
6387;BME280;3226;42.162;24.756;2023-04-22T13:03:02;99471.59;;;13.05;85.13
6387;BME280;3226;42.162;24.756;2023-04-22T13:05:30;99475.59;;;13.09;87.12
6387;BME280;3226;42.162;24.756;2023-04-22T13:07:58;99483.19;;;13.12;86.92
6387;BME280;3226;42.162;24.756;2023-04-22T13:10:33;99481.13;;;13.34;86.33
6387;BME280;3226;42.162;24.756;2023-04-22T13:13:01;99484.31;;;13.55;84.22
6387;BME280;3226;42.162;24.756;2023-04-22T13:15:45;99485.94;;;13.74;85.91
6387;BME280;3226;42.162;24.756;2023-04-22T13:18:14;99496.41;;;13.84;84.70
6387;BME280;3226;42.162;24.756;2023-04-22T13:20:42;99494.81;;;13.92;84.00